createdAt,value
2023-12-09T00:15:23.694Z,85.85
2023-12-09T00:31:00.627Z,85.19
2023-12-09T00:46:37.813Z,84.57
2023-12-09T01:02:14.696Z,85.24
2023-12-09T01:17:51.912Z,84.63
2023-12-09T01:33:28.880Z,84.53
2023-12-09T01:49:06.003Z,84.82
2023-12-09T02:04:42.970Z,84.30
2023-12-09T02:20:22.009Z,84.09
2023-12-09T02:36:00.992Z,84.84
2023-12-09T02:51:37.995Z,84.40
2023-12-09T03:07:15.063Z,85.20
2023-12-09T03:22:52.185Z,84.64
2023-12-09T03:38:29.130Z,84.07
2023-12-09T03:54:06.186Z,84.62
2023-12-09T04:09:44.264Z,84.34
2023-12-09T04:25:21.276Z,85.11
2023-12-09T04:40:58.299Z,84.44
2023-12-09T04:56:35.378Z,84.97
2023-12-09T05:12:12.634Z,85.36
2023-12-09T05:27:49.407Z,85.30
2023-12-09T05:43:26.533Z,86.09
2023-12-09T05:59:06.354Z,86.70
2023-12-09T06:14:43.759Z,86.68
2023-12-09T06:30:20.659Z,86.49
2023-12-09T06:45:57.589Z,85.64
2023-12-09T07:01:38.729Z,84.70
2023-12-09T07:17:16.201Z,85.76
2023-12-09T07:32:55.149Z,86.55
2023-12-09T07:48:34.078Z,86.49
2023-12-09T08:04:11.150Z,85.78
2023-12-09T08:19:47.951Z,85.31
2023-12-09T08:35:24.991Z,85.87
2023-12-09T08:51:02.168Z,86.21
2023-12-09T09:06:39.119Z,86.10
2023-12-09T09:22:16.061Z,86.24
2023-12-09T09:37:53.292Z,86.16
2023-12-09T09:53:48.328Z,85.58
2023-12-09T10:09:25.435Z,86.13
2023-12-09T10:25:06.742Z,86.52
2023-12-09T10:40:43.511Z,86.39
2023-12-09T10:56:20.640Z,86.82
2023-12-09T11:11:57.808Z,87.26
2023-12-09T11:27:37.716Z,86.74
2023-12-09T11:43:16.652Z,86.44
2023-12-09T11:58:53.784Z,86.53
2023-12-09T12:14:30.776Z,86.25
2023-12-09T12:30:09.902Z,85.92
2023-12-09T12:45:49.183Z,85.46
2023-12-09T13:01:25.917Z,85.42
2023-12-09T13:17:02.928Z,85.78
2023-12-09T13:32:40.079Z,86.10
2023-12-09T13:48:17.192Z,86.64
2023-12-09T14:03:54.118Z,86.54
2023-12-09T14:19:38.174Z,86.74
2023-12-09T14:35:15.377Z,86.86
2023-12-09T14:50:53.315Z,86.84
2023-12-09T15:06:30.493Z,86.74
2023-12-09T15:22:07.183Z,86.83
2023-12-09T15:37:44.205Z,86.62
2023-12-09T15:53:21.295Z,86.76
2023-12-09T16:08:58.466Z,87.44
2023-12-09T16:24:35.499Z,87.16
2023-12-09T16:40:12.482Z,87.80
2023-12-09T16:55:49.489Z,88.08
2023-12-09T17:11:27.749Z,88.37
2023-12-09T17:27:04.660Z,88.38
2023-12-09T17:42:41.708Z,88.59
2023-12-09T17:58:18.665Z,88.77
2023-12-09T18:13:55.619Z,89.01
2023-12-09T18:29:34.726Z,88.79
2023-12-09T18:45:14.945Z,89.12
2023-12-09T19:01:01.853Z,88.87
2023-12-09T19:16:44.899Z,89.36
2023-12-09T19:32:23.023Z,89.98
2023-12-09T19:48:03.034Z,90.12
2023-12-09T20:03:40.137Z,90.35
2023-12-09T20:19:18.195Z,90.88
2023-12-09T20:34:55.316Z,91.17
2023-12-09T20:50:42.254Z,92.00
2023-12-09T21:06:21.816Z,92.41
2023-12-09T21:21:59.148Z,92.17
2023-12-09T21:37:36.343Z,92.92
2023-12-09T21:53:13.358Z,93.14
2023-12-09T22:08:50.515Z,92.99
2023-12-09T22:24:27.585Z,93.25
2023-12-09T22:40:05.774Z,93.23
2023-12-09T22:55:42.593Z,93.11
2023-12-09T23:11:19.403Z,93.87
2023-12-09T23:26:56.625Z,94.69
2023-12-09T23:42:33.692Z,94.64
2023-12-09T23:58:11.921Z,94.26
